createdAt,value
2018-12-27T00:01:05.997Z,8.40
2018-12-27T00:03:35.755Z,8.33
2018-12-27T00:06:05.450Z,9.10
2018-12-27T00:08:35.123Z,9.93
2018-12-27T00:11:06.171Z,9.87
2018-12-27T00:13:35.831Z,9.73
2018-12-27T00:16:05.531Z,8.70
2018-12-27T00:18:35.302Z,7.13
2018-12-27T00:21:05.011Z,8.27
2018-12-27T00:23:34.682Z,8.20
2018-12-27T00:26:04.691Z,7.63
2018-12-27T00:28:34.758Z,7.40
2018-12-27T00:31:04.610Z,8.07
2018-12-27T00:33:34.471Z,8.07
2018-12-27T00:36:04.392Z,9.30
2018-12-27T00:38:34.206Z,9.03
2018-12-27T00:41:04.018Z,8.07
2018-12-27T00:43:33.946Z,8.60
2018-12-27T00:46:03.818Z,8.20
2018-12-27T00:48:33.836Z,8.27
2018-12-27T00:51:03.687Z,7.87
2018-12-27T00:53:33.505Z,8.00
2018-12-27T00:56:03.364Z,8.17
2018-12-27T00:58:33.238Z,8.63
2018-12-27T01:01:03.151Z,8.43
2018-12-27T01:03:32.975Z,8.17
2018-12-27T01:06:02.834Z,9.63
2018-12-27T01:08:32.702Z,9.50
2018-12-27T01:11:02.590Z,9.03
2018-12-27T01:13:32.451Z,9.07
2018-12-27T01:16:02.431Z,8.50
2018-12-27T01:18:32.240Z,8.50
2018-12-27T01:21:02.137Z,8.57
2018-12-27T01:23:32.020Z,8.27
2018-12-27T01:26:01.842Z,9.00
2018-12-27T01:28:31.741Z,9.03
2018-12-27T01:31:01.627Z,8.53
2018-12-27T01:33:31.487Z,8.40
2018-12-27T01:36:01.327Z,9.67
2018-12-27T01:38:31.123Z,8.57
2018-12-27T01:41:01.004Z,8.70
2018-12-27T01:43:30.892Z,9.60
2018-12-27T01:46:00.687Z,9.50
2018-12-27T01:48:30.499Z,10.93
2018-12-27T01:51:00.444Z,11.00
2018-12-27T01:53:30.300Z,13.23
2018-12-27T01:56:00.147Z,12.03
2018-12-27T01:58:30.067Z,13.20
2018-12-27T02:00:59.937Z,12.23
2018-12-27T02:03:29.786Z,14.30
2018-12-27T02:05:59.604Z,16.17
2018-12-27T02:08:29.427Z,15.03
2018-12-27T02:10:59.311Z,16.63
2018-12-27T02:13:29.201Z,14.00
2018-12-27T02:15:59.069Z,14.60
2018-12-27T02:18:28.910Z,15.70
2018-12-27T02:20:58.763Z,16.23
2018-12-27T02:23:29.674Z,15.20
2018-12-27T02:25:59.939Z,16.53
2018-12-27T02:28:29.743Z,14.60
2018-12-27T02:34:03.839Z,15.47
2018-12-27T02:36:35.984Z,16.80
2018-12-27T02:39:07.728Z,16.53
2018-12-27T02:41:37.589Z,16.53
2018-12-27T02:44:07.406Z,17.03
2018-12-27T02:46:37.266Z,16.83
2018-12-27T02:49:07.155Z,15.43
2018-12-27T02:51:37.075Z,17.03
2018-12-27T02:54:06.950Z,15.10
2018-12-27T02:56:37.092Z,15.97
2018-12-27T02:59:06.916Z,15.37
2018-12-27T03:01:37.124Z,13.23
2018-12-27T03:04:07.007Z,12.93
2018-12-27T03:06:36.870Z,12.10
2018-12-27T03:09:07.149Z,11.50
2018-12-27T03:11:37.034Z,11.67
2018-12-27T03:14:06.939Z,11.77
2018-12-27T03:16:36.760Z,12.10
2018-12-27T03:19:06.600Z,12.40
2018-12-27T03:21:36.472Z,13.53
2018-12-27T03:24:06.707Z,13.27
2018-12-27T03:26:36.525Z,12.93
2018-12-27T03:29:06.446Z,12.07
2018-12-27T03:31:36.304Z,13.67
2018-12-27T03:34:06.102Z,13.93
2018-12-27T03:36:35.958Z,12.87
2018-12-27T03:39:07.119Z,14.17
2018-12-27T03:41:37.071Z,13.63
2018-12-27T03:44:07.308Z,12.77
2018-12-27T03:46:37.159Z,13.53
2018-12-27T03:49:07.012Z,14.03
2018-12-27T03:51:36.868Z,13.93
2018-12-27T03:54:06.708Z,13.63
2018-12-27T03:56:36.566Z,13.87
2018-12-27T03:59:06.469Z,13.73
2018-12-27T04:01:36.326Z,12.30
2018-12-27T04:04:06.187Z,13.47
2018-12-27T04:06:36.075Z,12.93
2018-12-27T04:09:07.237Z,13.47
2018-12-27T04:11:37.079Z,14.40
2018-12-27T04:14:06.987Z,14.60
2018-12-27T04:16:36.676Z,14.93
2018-12-27T04:19:06.404Z,15.40
2018-12-27T04:21:36.182Z,16.20
2018-12-27T04:24:06.283Z,17.53
2018-12-27T04:26:35.998Z,15.67
2018-12-27T04:29:05.771Z,17.73
2018-12-27T04:31:35.720Z,17.80
2018-12-27T04:34:09.567Z,15.70
2018-12-27T04:36:37.859Z,17.50
2018-12-27T04:39:08.534Z,15.53
2018-12-27T04:41:38.649Z,16.47
2018-12-27T04:44:09.262Z,15.63
2018-12-27T04:46:39.050Z,14.93
2018-12-27T04:49:08.765Z,16.40
2018-12-27T04:51:38.435Z,15.37
2018-12-27T04:54:08.356Z,15.80
2018-12-27T04:56:38.066Z,14.87
2018-12-27T04:59:07.731Z,14.40
2018-12-27T05:01:37.411Z,12.87
2018-12-27T05:04:07.084Z,14.30
2018-12-27T05:06:36.847Z,12.37
2018-12-27T05:09:08.248Z,11.83
2018-12-27T05:11:37.962Z,12.30
2018-12-27T05:14:07.664Z,13.70
2018-12-27T05:16:37.379Z,13.50
2018-12-27T05:19:07.096Z,12.47
2018-12-27T05:21:36.834Z,13.67
2018-12-27T05:24:06.535Z,13.80
2018-12-27T05:26:36.269Z,12.97
2018-12-27T05:29:05.926Z,15.47
2018-12-27T05:31:35.592Z,18.30
2018-12-27T05:34:05.314Z,13.40
2018-12-27T05:36:35.037Z,13.43
2018-12-27T05:39:06.087Z,13.23
2018-12-27T05:41:36.787Z,12.80
2018-12-27T05:44:06.517Z,12.80
2018-12-27T05:46:36.291Z,12.77
2018-12-27T05:49:05.965Z,11.93
2018-12-27T05:51:35.619Z,10.80
2018-12-27T05:54:05.344Z,10.67
2018-12-27T05:56:35.065Z,10.27
2018-12-27T05:59:04.763Z,10.67
2018-12-27T06:01:34.455Z,10.20
2018-12-27T06:04:04.130Z,10.33
2018-12-27T06:06:33.846Z,12.50
2018-12-27T06:09:04.252Z,14.67
2018-12-27T06:11:33.906Z,14.60
2018-12-27T06:14:04.058Z,13.43
2018-12-27T06:16:33.778Z,13.70
2018-12-27T06:19:03.615Z,13.60
2018-12-27T06:21:33.306Z,10.70
2018-12-27T06:24:03.032Z,12.93
2018-12-27T06:26:32.750Z,12.90
2018-12-27T06:29:02.437Z,10.57
2018-12-27T06:31:32.223Z,14.50
2018-12-27T06:34:01.951Z,14.20
2018-12-27T06:36:31.654Z,12.23
2018-12-27T06:39:01.343Z,15.40
2018-12-27T06:41:31.074Z,12.93
2018-12-27T06:44:00.743Z,12.00
2018-12-27T06:46:30.439Z,13.07
2018-12-27T06:49:00.242Z,15.93
2018-12-27T06:51:29.979Z,18.80
2018-12-27T06:53:59.698Z,17.07
2018-12-27T06:56:29.373Z,16.40
2018-12-27T06:58:59.126Z,14.93
2018-12-27T07:01:28.776Z,14.20
2018-12-27T07:03:58.452Z,13.63
2018-12-27T07:06:28.171Z,15.17
2018-12-27T07:08:57.831Z,15.93
2018-12-27T07:11:27.554Z,14.73
2018-12-27T07:13:57.278Z,15.23
2018-12-27T07:16:27.082Z,14.27
2018-12-27T07:18:58.295Z,14.80
2018-12-27T07:21:28.366Z,15.80
2018-12-27T07:23:58.055Z,14.63
2018-12-27T07:26:28.255Z,15.27
2018-12-27T07:28:57.996Z,15.07
2018-12-27T07:31:27.768Z,15.80
2018-12-27T07:33:57.510Z,17.17
2018-12-27T07:36:27.822Z,18.30
2018-12-27T07:38:57.501Z,18.27
2018-12-27T07:41:27.171Z,18.67
2018-12-27T07:43:57.006Z,18.33
2018-12-27T07:46:26.842Z,17.97
2018-12-27T07:48:56.539Z,15.77
2018-12-27T07:51:26.291Z,13.83
2018-12-27T07:53:56.045Z,14.90
2018-12-27T07:56:25.786Z,15.73
2018-12-27T07:58:55.557Z,14.63
2018-12-27T08:01:25.211Z,18.63
2018-12-27T08:03:54.879Z,19.23
2018-12-27T08:06:24.603Z,14.40
2018-12-27T08:08:54.311Z,15.33
2018-12-27T08:11:23.999Z,16.10
2018-12-27T08:13:53.752Z,16.47
2018-12-27T08:16:23.463Z,17.87
2018-12-27T08:18:53.163Z,21.13
2018-12-27T08:21:22.917Z,20.07
2018-12-27T08:23:52.647Z,22.30
2018-12-27T08:26:22.365Z,20.03
2018-12-27T08:28:52.047Z,13.87
2018-12-27T08:31:21.793Z,14.10
2018-12-27T08:33:51.475Z,13.97
2018-12-27T08:36:21.219Z,15.57
2018-12-27T08:38:50.927Z,16.57
2018-12-27T08:41:20.667Z,16.07
2018-12-27T08:43:50.387Z,15.27
2018-12-27T08:46:20.094Z,15.30
2018-12-27T08:48:49.838Z,14.93
2018-12-27T08:51:19.850Z,15.20
2018-12-27T08:53:49.567Z,13.10
2018-12-27T08:56:19.368Z,13.70
2018-12-27T08:58:49.042Z,15.07
2018-12-27T09:01:18.754Z,14.53
2018-12-27T09:03:48.479Z,13.63
2018-12-27T09:06:18.162Z,11.93
2018-12-27T09:08:47.875Z,14.93
2018-12-27T09:11:17.595Z,16.27
2018-12-27T09:13:47.271Z,29.77
2018-12-27T09:16:16.948Z,25.90
2018-12-27T09:18:46.728Z,25.87
2018-12-27T09:21:16.389Z,33.20
2018-12-27T09:23:46.082Z,29.63
2018-12-27T09:26:15.841Z,24.20
2018-12-27T09:28:45.484Z,19.87
2018-12-27T09:31:15.142Z,25.13
2018-12-27T09:33:44.898Z,21.50
2018-12-27T09:36:14.935Z,21.07
2018-12-27T09:38:44.642Z,16.63
2018-12-27T09:41:14.349Z,16.60
2018-12-27T09:43:44.035Z,20.00
2018-12-27T09:46:13.707Z,20.70
2018-12-27T09:48:43.426Z,20.20
2018-12-27T09:51:13.071Z,22.37
2018-12-27T09:53:42.794Z,22.03
2018-12-27T09:56:12.483Z,19.83
2018-12-27T09:58:42.146Z,21.97
2018-12-27T10:01:11.866Z,19.53
2018-12-27T10:03:41.515Z,18.53
2018-12-27T10:06:13.566Z,18.10
2018-12-27T10:08:43.295Z,18.97
2018-12-27T10:11:13.080Z,23.20
2018-12-27T10:13:42.859Z,27.17
2018-12-27T10:16:12.582Z,25.83
2018-12-27T10:18:42.328Z,23.50
2018-12-27T10:21:12.035Z,27.67
2018-12-27T10:23:41.739Z,28.10
2018-12-27T10:26:11.487Z,25.87
2018-12-27T10:28:41.186Z,26.67
2018-12-27T10:31:10.851Z,27.23
2018-12-27T10:33:40.561Z,25.00
2018-12-27T10:36:10.288Z,19.83
2018-12-27T10:38:39.979Z,22.17
2018-12-27T10:41:09.754Z,23.03
2018-12-27T10:43:39.434Z,24.40
2018-12-27T10:46:09.146Z,19.03
2018-12-27T10:48:38.915Z,17.83
2018-12-27T10:51:08.665Z,17.77
2018-12-27T10:53:38.377Z,19.17
2018-12-27T10:56:09.356Z,21.10
2018-12-27T10:58:40.920Z,28.20
2018-12-27T11:01:10.423Z,24.77
2018-12-27T11:03:40.111Z,23.73
2018-12-27T11:06:09.811Z,28.87
2018-12-27T11:08:39.611Z,24.57
2018-12-27T11:11:09.251Z,29.17
2018-12-27T11:13:38.927Z,26.10
2018-12-27T11:16:08.607Z,23.80
2018-12-27T11:18:38.342Z,23.10
2018-12-27T11:21:08.099Z,21.20
2018-12-27T11:23:37.759Z,16.20
2018-12-27T11:26:08.462Z,18.07
2018-12-27T11:28:43.006Z,22.47
2018-12-27T11:31:12.741Z,20.27
2018-12-27T11:33:42.454Z,19.67
2018-12-27T11:36:17.181Z,15.27
2018-12-27T11:38:43.527Z,17.53
2018-12-27T11:41:13.263Z,18.53
2018-12-27T11:43:42.970Z,21.67
2018-12-27T11:46:12.699Z,20.50
2018-12-27T11:48:42.375Z,18.13
2018-12-27T11:51:12.099Z,14.87
2018-12-27T11:53:41.763Z,16.80
2018-12-27T11:56:11.471Z,20.67
2018-12-27T11:58:41.186Z,22.03
2018-12-27T12:01:10.875Z,19.87
2018-12-27T12:03:40.598Z,19.13
2018-12-27T12:06:10.378Z,17.10
2018-12-27T12:08:40.090Z,17.30
2018-12-27T12:11:09.743Z,18.50
2018-12-27T12:13:39.855Z,19.97
2018-12-27T12:16:09.539Z,24.00
2018-12-27T12:18:39.198Z,24.50
2018-12-27T12:21:08.937Z,25.07
2018-12-27T12:23:38.618Z,24.30
2018-12-27T12:26:08.282Z,18.40
2018-12-27T12:28:38.019Z,19.80
2018-12-27T12:31:09.475Z,19.53
2018-12-27T12:33:39.160Z,18.03
2018-12-27T12:36:10.843Z,17.50
2018-12-27T12:38:41.163Z,17.40
2018-12-27T12:41:10.852Z,17.00
2018-12-27T12:43:40.520Z,16.93
2018-12-27T12:46:10.252Z,19.00
2018-12-27T12:48:39.997Z,16.93
2018-12-27T12:51:11.397Z,19.13
2018-12-27T12:53:41.111Z,14.50
2018-12-27T12:56:11.350Z,14.97
2018-12-27T12:58:41.094Z,14.73
2018-12-27T13:01:10.755Z,22.90
2018-12-27T13:03:40.470Z,29.80
2018-12-27T13:06:17.792Z,40.17
2018-12-27T13:08:42.538Z,29.77
2018-12-27T13:11:12.267Z,18.07
2018-12-27T13:13:41.990Z,21.70
2018-12-27T13:16:14.844Z,19.23
2018-12-27T13:18:47.464Z,16.80
2018-12-27T13:21:17.511Z,22.13
2018-12-27T13:23:47.228Z,24.60
2018-12-27T13:26:17.978Z,21.93
2018-12-27T13:28:47.668Z,21.40
2018-12-27T13:31:18.272Z,18.27
2018-12-27T13:33:48.028Z,16.87
2018-12-27T13:36:17.699Z,17.37
2018-12-27T13:38:51.583Z,19.33
2018-12-27T13:41:22.335Z,18.00
2018-12-27T13:43:52.074Z,18.47
2018-12-27T13:46:22.170Z,16.53
2018-12-27T13:48:51.938Z,18.57
2018-12-27T13:51:21.587Z,17.77
2018-12-27T13:53:51.320Z,18.23
2018-12-27T13:56:21.117Z,20.07
2018-12-27T13:58:50.807Z,20.63
2018-12-27T14:01:20.522Z,17.37
2018-12-27T14:03:50.753Z,23.67
2018-12-27T14:06:20.451Z,19.93
2018-12-27T14:08:50.138Z,23.63
2018-12-27T14:11:19.807Z,25.43
2018-12-27T14:13:49.862Z,22.97
2018-12-27T14:16:19.627Z,22.63
2018-12-27T14:18:49.463Z,24.00
2018-12-27T14:21:19.204Z,23.47
2018-12-27T14:23:49.311Z,24.97
2018-12-27T14:26:18.964Z,25.53
2018-12-27T14:28:48.675Z,24.03
2018-12-27T14:31:19.564Z,28.23
2018-12-27T14:33:49.270Z,20.27
2018-12-27T14:36:18.947Z,20.13
2018-12-27T14:38:48.659Z,19.40
2018-12-27T14:41:18.347Z,23.70
2018-12-27T14:43:48.039Z,36.17
2018-12-27T14:46:17.907Z,36.23
2018-12-27T14:48:47.519Z,34.83
2018-12-27T14:51:17.253Z,35.37
2018-12-27T14:53:47.424Z,44.23
2018-12-27T14:56:17.156Z,40.80
2018-12-27T14:58:48.206Z,44.83
2018-12-27T15:01:17.972Z,42.33
2018-12-27T15:03:47.639Z,27.93
2018-12-27T15:06:17.419Z,24.63
2018-12-27T15:08:48.282Z,25.87
2018-12-27T15:11:18.030Z,24.87
2018-12-27T15:13:47.682Z,28.97
2018-12-27T15:16:17.403Z,30.83
2018-12-27T15:18:47.080Z,28.43
2018-12-27T15:21:16.770Z,35.57
2018-12-27T15:23:46.574Z,39.23
2018-12-27T15:26:16.887Z,56.07
2018-12-27T15:28:46.582Z,31.53
2018-12-27T15:31:16.353Z,54.67
2018-12-27T15:33:46.127Z,68.07
2018-12-27T15:36:17.787Z,38.53
2018-12-27T15:38:47.556Z,40.50
2018-12-27T15:41:17.264Z,37.90
2018-12-27T15:43:46.979Z,41.63
2018-12-27T15:46:16.719Z,33.23
2018-12-27T15:48:46.375Z,38.37
2018-12-27T15:51:16.039Z,43.33
2018-12-27T15:53:45.866Z,32.13
2018-12-27T15:56:15.568Z,33.27
2018-12-27T15:58:45.217Z,31.17
2018-12-27T16:01:14.962Z,33.57
2018-12-27T16:03:44.670Z,39.50
2018-12-27T16:06:14.389Z,30.83
2018-12-27T16:08:44.586Z,28.07
2018-12-27T16:11:15.187Z,38.87
2018-12-27T16:13:44.935Z,35.03
2018-12-27T16:16:14.575Z,36.23
2018-12-27T16:18:44.336Z,27.33
2018-12-27T16:21:15.266Z,30.17
2018-12-27T16:23:44.976Z,27.33
2018-12-27T16:26:14.710Z,26.67
2018-12-27T16:28:44.463Z,30.03
2018-12-27T16:31:14.165Z,33.63
2018-12-27T16:33:43.920Z,29.57
2018-12-27T16:36:13.644Z,23.23
2018-12-27T16:38:43.383Z,29.10
2018-12-27T16:41:13.052Z,31.47
2018-12-27T16:43:42.723Z,36.93
2018-12-27T16:46:12.427Z,34.73
2018-12-27T16:48:42.144Z,26.10
2018-12-27T16:51:11.816Z,24.77
2018-12-27T16:53:41.520Z,29.87
2018-12-27T16:56:11.306Z,36.53
2018-12-27T16:58:42.483Z,31.63
2018-12-27T17:01:12.248Z,35.17
2018-12-27T17:03:41.907Z,34.07
2018-12-27T17:06:11.675Z,30.67
2018-12-27T17:08:41.383Z,26.87
2018-12-27T17:11:11.055Z,29.37
2018-12-27T17:13:42.495Z,42.20
2018-12-27T17:16:14.206Z,38.47
2018-12-27T17:18:43.973Z,33.13
2018-12-27T17:21:13.691Z,33.20
2018-12-27T17:23:43.383Z,35.70
2018-12-27T17:26:13.126Z,29.90
2018-12-27T17:28:42.835Z,35.27
2018-12-27T17:31:12.536Z,31.27
2018-12-27T17:33:42.274Z,37.67
2018-12-27T17:36:11.958Z,29.57
2018-12-27T17:38:41.695Z,29.20
2018-12-27T17:41:11.347Z,31.07
2018-12-27T17:43:41.015Z,25.67
2018-12-27T17:46:10.757Z,31.93
2018-12-27T17:48:42.158Z,31.77
2018-12-27T17:51:11.839Z,30.07
2018-12-27T17:53:41.550Z,33.37
2018-12-27T17:56:11.354Z,26.93
2018-12-27T17:58:41.078Z,27.30
2018-12-27T18:01:10.786Z,26.60
2018-12-27T18:03:40.500Z,25.80
2018-12-27T18:06:10.210Z,30.03
2018-12-27T18:08:42.123Z,32.63
2018-12-27T18:11:12.239Z,29.17
2018-12-27T18:13:41.940Z,28.37
2018-12-27T18:16:11.651Z,32.33
2018-12-27T18:18:41.410Z,30.30
2018-12-27T18:21:11.095Z,29.10
2018-12-27T18:23:41.751Z,30.30
2018-12-27T18:26:11.536Z,26.90
2018-12-27T18:28:41.217Z,33.13
2018-12-27T18:31:11.350Z,33.53
2018-12-27T18:33:41.122Z,31.43
2018-12-27T18:36:10.811Z,32.77
2018-12-27T18:38:41.031Z,30.43
2018-12-27T18:41:10.816Z,23.13
2018-12-27T18:43:40.546Z,27.30
2018-12-27T18:46:10.264Z,32.33
2018-12-27T18:48:39.983Z,27.23
2018-12-27T18:51:09.647Z,29.17
2018-12-27T18:53:39.390Z,27.87
2018-12-27T18:56:09.079Z,27.73
2018-12-27T18:58:38.878Z,29.23
2018-12-27T19:01:08.610Z,28.37
2018-12-27T19:03:38.301Z,27.87
2018-12-27T19:06:08.091Z,27.27
2018-12-27T19:08:37.800Z,25.13
2018-12-27T19:11:42.923Z,28.53
2018-12-27T19:14:12.701Z,30.30
2018-12-27T19:16:43.526Z,33.07
2018-12-27T19:19:13.284Z,38.20
2018-12-27T19:21:51.203Z,34.57
2018-12-27T19:24:20.960Z,35.63
2018-12-27T19:26:50.675Z,34.17
2018-12-27T19:29:20.366Z,29.03
2018-12-27T19:31:50.119Z,27.07
2018-12-27T19:34:19.822Z,25.80
2018-12-27T19:36:50.737Z,80.37
2018-12-27T19:39:20.531Z,31.00
2018-12-27T19:41:50.212Z,28.30
2018-12-27T19:44:20.028Z,28.57
2018-12-27T19:46:49.819Z,44.47
2018-12-27T19:49:19.491Z,33.93
2018-12-27T19:51:49.171Z,34.97
2018-12-27T19:54:18.987Z,28.43
2018-12-27T19:56:48.664Z,31.67
2018-12-27T19:59:19.333Z,23.13
2018-12-27T20:01:49.594Z,23.80
2018-12-27T20:04:19.249Z,27.73
2018-12-27T20:06:48.917Z,26.27
2018-12-27T20:09:18.648Z,27.70
2018-12-27T20:11:48.297Z,27.83
2018-12-27T20:14:17.971Z,28.47
2018-12-27T20:16:47.672Z,25.47
2018-12-27T20:19:17.424Z,26.07
2018-12-27T20:21:47.443Z,25.17
2018-12-27T20:24:17.146Z,25.77
2018-12-27T20:26:46.836Z,23.87
2018-12-27T20:29:16.599Z,28.63
2018-12-27T20:31:46.313Z,27.53
2018-12-27T20:34:16.023Z,30.57
2018-12-27T20:36:45.696Z,32.13
2018-12-27T20:39:15.438Z,26.70
2018-12-27T20:41:45.169Z,29.70
2018-12-27T20:44:14.989Z,25.03
2018-12-27T20:46:44.764Z,31.53
2018-12-27T20:49:14.502Z,27.67
2018-12-27T20:51:44.153Z,26.47
2018-12-27T20:54:13.843Z,24.83
2018-12-27T20:56:44.641Z,25.47
2018-12-27T20:59:14.335Z,21.67
2018-12-27T21:01:44.038Z,26.73
2018-12-27T21:04:13.740Z,25.90
2018-12-27T21:06:43.436Z,31.93
2018-12-27T21:09:13.183Z,30.00
2018-12-27T21:11:42.873Z,28.20
2018-12-27T21:14:12.648Z,28.60
2018-12-27T21:16:42.345Z,26.60
2018-12-27T21:19:12.027Z,27.03
2018-12-27T21:21:41.775Z,21.37
2018-12-27T21:24:11.439Z,20.37
2018-12-27T21:26:41.175Z,22.53
2018-12-27T21:29:10.933Z,22.23
2018-12-27T21:31:40.642Z,20.83
2018-12-27T21:34:10.372Z,23.30
2018-12-27T21:36:42.675Z,22.53
2018-12-27T21:39:13.827Z,21.57
2018-12-27T21:41:43.524Z,22.07
2018-12-27T21:44:13.254Z,23.17
2018-12-27T21:46:43.668Z,21.80
2018-12-27T21:49:13.379Z,22.33
2018-12-27T21:51:43.055Z,24.63
2018-12-27T21:54:12.775Z,22.93
2018-12-27T21:56:42.483Z,20.30
2018-12-27T21:59:12.195Z,22.87
2018-12-27T22:01:41.844Z,24.40
2018-12-27T22:04:12.802Z,24.63
2018-12-27T22:06:42.488Z,22.37
2018-12-27T22:09:12.143Z,25.33
2018-12-27T22:11:41.945Z,25.57
2018-12-27T22:14:11.669Z,22.17
2018-12-27T22:16:41.374Z,23.30
2018-12-27T22:19:11.199Z,23.13
2018-12-27T22:21:40.874Z,23.27
2018-12-27T22:24:10.564Z,22.47
2018-12-27T22:26:40.335Z,20.27
2018-12-27T22:29:10.003Z,20.10
2018-12-27T22:31:39.661Z,21.80
2018-12-27T22:34:09.339Z,21.80
2018-12-27T22:36:39.063Z,20.53
2018-12-27T22:39:09.523Z,21.43
2018-12-27T22:41:39.331Z,22.97
2018-12-27T22:44:09.022Z,20.20
2018-12-27T22:46:38.722Z,18.40
2018-12-27T22:49:08.399Z,22.37
2018-12-27T22:51:38.116Z,23.03
2018-12-27T22:54:08.187Z,20.73
2018-12-27T22:56:37.850Z,20.80
2018-12-27T22:59:07.594Z,21.20
2018-12-27T23:01:37.318Z,21.40
2018-12-27T23:04:07.425Z,18.00
2018-12-27T23:06:37.114Z,22.20
2018-12-27T23:09:07.746Z,24.90
2018-12-27T23:11:37.500Z,23.17
2018-12-27T23:14:07.167Z,22.00
2018-12-27T23:16:36.860Z,21.43
2018-12-27T23:19:06.567Z,20.70
2018-12-27T23:21:36.270Z,20.43
2018-12-27T23:24:05.994Z,19.00
2018-12-27T23:26:35.729Z,21.37
2018-12-27T23:29:05.446Z,21.50
2018-12-27T23:31:35.225Z,22.17
2018-12-27T23:34:04.891Z,19.97
2018-12-27T23:36:34.542Z,22.23
2018-12-27T23:39:07.203Z,20.80
2018-12-27T23:41:37.210Z,19.73
2018-12-27T23:44:06.919Z,19.23
2018-12-27T23:46:36.632Z,19.47
2018-12-27T23:49:06.346Z,19.03
2018-12-27T23:51:36.052Z,20.47
2018-12-27T23:54:06.291Z,19.13
2018-12-27T23:56:35.986Z,20.43
2018-12-27T23:59:10.618Z,21.83
